This is the latest recevied weather packets stored in our database for station/object NW5W-12. If no packets are shown the sender has not sent any weather packets the latest 10 day(s).
| Time | Temp. | Humidity | Pressure | Rain* | Wind** | Luminosity | Snow |
|---|---|---|---|---|---|---|---|
| 1778162442 | 8.33° C | 37% | 1020.2 hPa | 0 mm | - | - | - |
| 1778162142 | 8.33° C | 38% | 1020.1 hPa | 0 mm | - | - | - |
| 1778161842 | 7.78° C | 38% | 1020.1 hPa | 0 mm | - | - | - |
| 1778161542 | 8.33° C | 38% | 1020.1 hPa | 0 mm | - | - | - |
| 1778161242 | 7.78° C | 36% | 1020.1 hPa | 0 mm | - | - | - |
| 1778160942 | 7.78° C | 37% | 1020 hPa | 0 mm | - | - | - |
| 1778160642 | 7.22° C | 39% | 1020 hPa | 0 mm | - | - | - |
| 1778160342 | 7.22° C | 39% | 1020.1 hPa | 0 mm | - | - | - |
| 1778160042 | 6.67° C | 40% | 1020.1 hPa | 0 mm | - | - | - |
| 1778159742 | 6.11° C | 41% | 1020 hPa | 0 mm | - | - | - |
| 1778159442 | 6.11° C | 42% | 1020 hPa | 0 mm | - | - | - |
| 1778159142 | 6.11° C | 43% | 1020 hPa | 0 mm | - | - | - |
| 1778158842 | 5.56° C | 44% | 1020 hPa | 0 mm | - | - | - |
| 1778158542 | 5.56° C | 44% | 1019.9 hPa | 0 mm | - | - | - |
| 1778158242 | 5.56° C | 44% | 1020 hPa | 0 mm | - | - | - |
| 1778157942 | 5.56° C | 44% | 1019.9 hPa | 0 mm | - | - | - |
| 1778157642 | 5.56° C | 45% | 1019.8 hPa | 0 mm | - | - | - |
| 1778157343 | 5.56° C | 47% | 1019.8 hPa | 0 mm | - | - | - |
| 1778157042 | 5° C | 48% | 1019.7 hPa | 0 mm | - | - | - |
| 1778156742 | 5.56° C | 48% | 1019.7 hPa | 0 mm | - | - | - |
| 1778156442 | 6.11° C | 44% | 1019.6 hPa | 0 mm | - | - | - |
| 1778156143 | 6.67° C | 41% | 1019.6 hPa | 0 mm | - | - | - |
| 1778155842 | 7.78° C | 36% | 1019.7 hPa | 0 mm | - | - | - |
| 1778155542 | 7.78° C | 34% | 1019.6 hPa | 0 mm | - | - | - |
| 1778155242 | 7.78° C | 34% | 1019.7 hPa | 0 mm | - | - | - |
* Rain since midnight (hover to see other rain measurements)
** Current wind speed in m/s (hover to see current wind gust speed)